Aérodrome :
LOGIN :

S'inscrire | Disclaimer

   EN    FR    IT 

 










Légende :    VFR   VFR Marginal   IFR   IFR Intensif   IFR Très Intensif
Visi : 
Plafond : 
>= 8 km
>= 3000ft
5 à 8 km
1000 à 3000 ft
1500m à 5 km
500 à 1000 ft
800 à 1500m
200 à 500 ft
< 800m
< 200 ft
Symboles :   Orages  Brouillard  Fortes neiges  Fortes précipitations  Vent > 20 kt
SIGMETs :   Divers  Orages  Givrage  Turbulence  Onde Orograph.  Cendres Volcan.






- Altitude de l'aérodrome : -13 ft
- Code IATA : LEY


EHLE - Lelystad

DERNIER METAR :
  • 211625Z AUTO 13007G17KT 9999 TS SCT042/// BKN046/// 20/15 Q1005 RERA BECMG NSW

METARs EXPIRÉS :
  • 211555Z AUTO 08014G27KT 030V130 4600 +TSRA FEW004 FEW015CB SCT036 BKN042 17/14 Q1005 TEMPO 5000 TSRA SCT040CB
  • 211525Z AUTO 06010KT 030V100 9999 NSC 24/14 Q1005 TEMPO 5000 TSRA SCT040CB
  • 211455Z AUTO 07010KT 030V110 9999 FEW048/// 24/14 Q1006 NOSIG
  • 211425Z AUTO 07010KT 030V100 9999 NSC 24/13 Q1006 NOSIG
  • 211355Z AUTO 06010KT 030V090 9999 SCT047/// 24/14 Q1006 NOSIG
  • 211325Z AUTO 08009KT 040V120 9999 NSC 24/13 Q1006 NOSIG
  • 211255Z AUTO 08009KT 050V120 9999 SCT046/// 23/12 Q1007 NOSIG
  • 211225Z AUTO 09010KT 060V130 9999 FEW043/// 24/13 Q1007 NOSIG
  • 211155Z AUTO 08009KT 030V140 9999 SCT044/// 24/14 Q1007 NOSIG

TAF TAF EHLE
Valide du 21 à 12h jusqu'au 22 à 18h UTC


211109Z 2112/2218 07010KT 9999 FEW035
TEMPO 2115/2122 VRB15G25KT 4000 SHRA TSRA SCT025CB BKN035
PROB30
TEMPO 2115/2120 VRB22G33KT 2500 TSRAGR FEW012 BKN022CB
BECMG 2120/2123 31005KT
TEMPO 2122/2205 4000 RA SHRA FEW040CB
BECMG 2123/2202 7000 BKN005
BECMG 2202/2205 21012KT
BECMG 2208/2211 9999 SCT018
PROB30
TEMPO 2212/2218 7000 SHRA FEW020CB



MET'MAP, la Météo Aéronautique d'un coup d'oeil ! - Copyright ORBIFLY Décembre 2007 - Disclaimer

ORBIFLY MET'MAP TEAM :

Programmation & Développement : Alexandra Zaïnal
Sur une idée originale de : Baudouin d'Aumeries
Soutien technique & logistique : Manuel Goepfert
Assistance : Marc-Olivier Méhu




SOURCES & CREDITS :

   NOAA